ADDS METAR Data INFO
IDs: Format: Raw Decoded Include TAF

Data at: 0504 UTC 21 Feb 2018

KBQP 201515Z AUTO 16005KT 10SM OVC014 22/21 A3013 RMK AO2 T02170206
KBQP 201455Z AUTO 17007KT 10SM OVC014 22/21 A3013 RMK AO2 T02150208
KBQP 201435Z AUTO 16007KT 10SM BKN014 OVC021 21/21 A3012 RMK AO2 T02120209
KBQP 201415Z AUTO 00000KT 10SM BKN016 OVC025 21/21 A3011 RMK AO2 T02100206
KBQP 201355Z AUTO 15003KT 10SM BKN014 BKN020 OVC027 21/20 A3011 RMK AO2 T02050201
KBQP 201335Z AUTO 13004KT 10SM OVC012 20/20 A3010 RMK AO2 T02020200
KBQP 201315Z AUTO 15004KT 10SM OVC014 20/20 A3009 RMK AO2 T02020199
KBQP 201255Z AUTO 14003KT 10SM OVC016 20/20 A3009 RMK AO2 T02020199
KBQP 201235Z AUTO 16004KT 10SM BKN016 OVC022 20/20 A3009 RMK AO2 T02000197
KBQP 201215Z AUTO 15005KT 10SM BKN018 BKN024 OVC050 20/20 A3009 RMK AO2 T02000196
KBQP 201155Z AUTO 15003KT 10SM SCT009 BKN020 OVC050 20/20 A3008 RMK AO2 T01980195 10198 20185
KBQP 201135Z AUTO 17004KT 10SM OVC009 20/20 A3008 RMK AO2 T01970195
KBQP 201115Z AUTO 16006KT 10SM OVC007 20/20 A3007 RMK AO2 T01970195
KBQP 201055Z AUTO 15005KT 10SM OVC007 20/19 A3006 RMK AO2 T01970194
KBQP 201035Z AUTO 16006KT 110V180 10SM OVC007 20/19 A3006 RMK AO2 T01960193
KBQP 201015Z AUTO 15006KT 060V200 10SM OVC009 20/19 A3006 RMK AO2 T01970193
KBQP 200955Z AUTO 15005KT 10SM OVC009 20/19 A3006 RMK AO2 T01960193
KBQP 200935Z AUTO 00000KT 10SM OVC009 19/19 A3006 RMK AO2 T01930190
KBQP 200915Z AUTO 15005KT 10SM BKN013 OVC022 19/19 A3005 RMK AO2 T01900187
KBQP 200855Z AUTO 00000KT 10SM BKN017 BKN024 19/19 A3006 RMK AO2 T01900186
KBQP 200835Z AUTO 17005KT 10SM CLR 19/19 A3007 RMK AO2 T01870185
KBQP 200815Z AUTO 16005KT 10SM SCT028 19/18 A3007 RMK AO2 T01860182
KBQP 200755Z AUTO 16004KT 10SM CLR 19/17 A3007 RMK AO2 T01860173
KBQP 200735Z AUTO 14003KT 10SM CLR 19/17 A3008 RMK AO2 T01850165
KBQP 200715Z AUTO 00000KT 10SM CLR 19/16 A3007 RMK AO2 T01870160
KBQP 200655Z AUTO 00000KT 10SM CLR 19/16 A3008 RMK AO2 T01860160
KBQP 200635Z AUTO 16004KT 10SM CLR 19/16 A3007 RMK AO2 T01900160
KBQP 200615Z AUTO 15003KT 10SM CLR 19/16 A3007 RMK AO2 T01920158
KBQP 200555Z AUTO 15004KT 10SM CLR 19/16 A3007 RMK AO2 T01930158 10243 20189 402770151
KBQP 200535Z AUTO 00000KT 10SM CLR 19/16 A3007 RMK AO2 T01900155
KBQP 200515Z AUTO 14003KT 10SM CLR 19/15 A3007 RMK AO2 T01910151
KBQP 200455Z AUTO 00000KT 10SM CLR 19/15 A3008 RMK AO2 T01910151
KBQP 200435Z AUTO 18003KT 10SM CLR 20/15 A3008 RMK AO2 T01950152
KBQP 200415Z AUTO 18005KT 10SM CLR 20/15 A3007 RMK AO2 T02000152
KBQP 200355Z AUTO 13003KT 10SM CLR 20/15 A3005 RMK AO2 T02040153
KBQP 200335Z AUTO 16005KT 10SM CLR 21/16 A3005 RMK AO2 T02050155
KBQP 200315Z AUTO 17005KT 10SM CLR 21/15 A3005 RMK AO2 T02060152
KBQP 200255Z AUTO 17004KT 10SM CLR 21/15 A3005 RMK AO2 T02070151
KBQP 200235Z AUTO 17004KT 10SM CLR 21/15 A3004 RMK AO2 T02090150
KBQP 200215Z AUTO 19004KT 10SM CLR 21/15 A3004 RMK AO2 T02130149
KBQP 200155Z AUTO 18004KT 10SM CLR 22/15 A3004 RMK AO2 T02150148
KBQP 200135Z AUTO 18005KT 10SM CLR 22/15 A3003 RMK AO2 T02170150
KBQP 200115Z AUTO 17004KT 10SM CLR 22/15 A3003 RMK AO2 T02210150
KBQP 200055Z AUTO 18005KT 10SM CLR 23/15 A3002 RMK AO2 T02260150
KBQP 200035Z AUTO 17006KT 10SM CLR 23/15 A3002 RMK AO2 T02330150
KBQP 200015Z AUTO 17007KT 10SM CLR 24/15 A3001 RMK AO2 T02380150
KBQP 192355Z AUTO 18009KT 10SM CLR 24/15 A3001 RMK AO2 T02430150 10277 20232
KBQP 192335Z AUTO 17008KT 10SM CLR 25/15 A3001 RMK AO2 T02470151
KBQP 192315Z AUTO 18008G14KT 10SM CLR 25/15 A3001 RMK AO2 T02530152
KBQP 192255Z AUTO 18008G14KT 10SM CLR 26/15 A3001 RMK AO2 T02600154
KBQP 192235Z AUTO 17011G15KT 10SM CLR 27/15 A3000 RMK AO2 T02650153
KBQP 192215Z AUTO 18011G16KT 10SM CLR 27/16 A3000 RMK AO2 T02660155
KBQP 192155Z AUTO 16009G18KT 10SM CLR 27/15 A3000 RMK AO2 T02710153
KBQP 192135Z AUTO 17010G17KT 10SM SCT050 27/15 A3000 RMK AO2 T02690151
KBQP 192115Z AUTO 17007G17KT 10SM SCT050 27/15 A3001 RMK AO2 T02660147
KBQP 192055Z AUTO 19011G22KT 10SM SCT050 27/14 A3000 RMK AO2 T02700138
KBQP 192035Z AUTO 18014G20KT 10SM SCT050 27/14 A3000 RMK AO2 T02740144
KBQP 192015Z AUTO 18012G19KT 10SM SCT043 SCT050 27/15 A3001 RMK AO2 T02650149
KBQP 191955Z AUTO 16008G22KT 130V190 10SM SCT042 SCT049 27/16 A3002 RMK AO2 T02660156
KBQP 191935Z AUTO 17009G22KT 140V200 10SM SCT037 SCT045 27/16 A3002 RMK AO2 T02660162
KBQP 191915Z AUTO 18010G19KT 10SM SCT035 SCT043 26/17 A3003 RMK AO2 T02630165
KBQP 191855Z AUTO 17012G19KT 10SM SCT035 SCT040 25/17 A3004 RMK AO2 T02540168
KBQP 191835Z AUTO 18015G20KT 10SM BKN029 BKN034 24/17 A3006 RMK AO2 T02440174
KBQP 191815Z AUTO 19012G15KT 10SM SCT024 BKN031 OVC035 24/18 A3007 RMK AO2 T02350180
KBQP 191755Z AUTO 18012G19KT 10SM BKN021 OVC026 23/19 A3008 RMK AO2 T02310186 10231 20170
KBQP 191735Z AUTO 18008G16KT 150V210 10SM BKN018 OVC024 22/19 A3009 RMK AO2 T02240191
KBQP 191715Z AUTO 17009G17KT 130V190 10SM OVC016 22/19 A3010 RMK AO2 T02200194